sensor_id;sensor_type;location;lat;lon;timestamp;P1;durP1;ratioP1;P2;durP2;ratioP2
4122;SDS011;2075;51.062;6.920;2024-02-04T00:00:19;2.83;;;2.63;;
4122;SDS011;2075;51.062;6.920;2024-02-04T00:03:05;2.00;;;1.90;;
4122;SDS011;2075;51.062;6.920;2024-02-04T00:05:50;2.10;;;1.80;;
4122;SDS011;2075;51.062;6.920;2024-02-04T00:08:36;2.00;;;1.17;;
4122;SDS011;2075;51.062;6.920;2024-02-04T00:11:21;1.30;;;1.30;;
4122;SDS011;2075;51.062;6.920;2024-02-04T00:14:08;0.80;;;0.80;;
4122;SDS011;2075;51.062;6.920;2024-02-04T00:16:54;1.30;;;1.30;;
4122;SDS011;2075;51.062;6.920;2024-02-04T00:19:39;1.50;;;1.40;;
4122;SDS011;2075;51.062;6.920;2024-02-04T00:22:24;2.20;;;2.00;;
4122;SDS011;2075;51.062;6.920;2024-02-04T00:25:10;2.50;;;2.30;;
4122;SDS011;2075;51.062;6.920;2024-02-04T00:27:55;3.10;;;2.90;;
4122;SDS011;2075;51.062;6.920;2024-02-04T00:30:42;3.80;;;3.50;;
4122;SDS011;2075;51.062;6.920;2024-02-04T00:33:28;5.50;;;4.27;;
4122;SDS011;2075;51.062;6.920;2024-02-04T00:36:13;6.10;;;5.00;;
4122;SDS011;2075;51.062;6.920;2024-02-04T00:38:59;6.30;;;5.70;;
4122;SDS011;2075;51.062;6.920;2024-02-04T00:41:44;5.20;;;4.73;;
4122;SDS011;2075;51.062;6.920;2024-02-04T00:44:30;6.93;;;5.20;;
4122;SDS011;2075;51.062;6.920;2024-02-04T00:47:16;5.60;;;5.03;;
4122;SDS011;2075;51.062;6.920;2024-02-04T00:50:02;8.00;;;5.60;;
4122;SDS011;2075;51.062;6.920;2024-02-04T00:52:48;8.77;;;6.73;;
4122;SDS011;2075;51.062;6.920;2024-02-04T00:55:33;6.30;;;5.47;;
4122;SDS011;2075;51.062;6.920;2024-02-04T00:58:19;6.80;;;6.10;;
4122;SDS011;2075;51.062;6.920;2024-02-04T01:01:04;6.73;;;6.07;;
4122;SDS011;2075;51.062;6.920;2024-02-04T01:03:51;7.27;;;5.10;;
4122;SDS011;2075;51.062;6.920;2024-02-04T01:06:36;6.83;;;5.50;;
4122;SDS011;2075;51.062;6.920;2024-02-04T01:09:25;5.13;;;4.63;;
4122;SDS011;2075;51.062;6.920;2024-02-04T01:12:10;6.23;;;5.30;;
4122;SDS011;2075;51.062;6.920;2024-02-04T01:14:56;6.03;;;4.87;;
4122;SDS011;2075;51.062;6.920;2024-02-04T01:17:41;5.10;;;4.67;;
4122;SDS011;2075;51.062;6.920;2024-02-04T01:20:28;4.87;;;4.37;;
4122;SDS011;2075;51.062;6.920;2024-02-04T01:23:13;5.53;;;4.60;;
4122;SDS011;2075;51.062;6.920;2024-02-04T01:26:01;5.90;;;3.63;;
4122;SDS011;2075;51.062;6.920;2024-02-04T01:28:47;4.50;;;4.20;;
4122;SDS011;2075;51.062;6.920;2024-02-04T01:31:32;3.60;;;3.30;;
4122;SDS011;2075;51.062;6.920;2024-02-04T01:34:17;4.43;;;3.27;;
4122;SDS011;2075;51.062;6.920;2024-02-04T01:37:05;6.10;;;2.97;;
4122;SDS011;2075;51.062;6.920;2024-02-04T01:39:50;3.63;;;3.33;;
4122;SDS011;2075;51.062;6.920;2024-02-04T01:42:36;2.97;;;2.70;;
4122;SDS011;2075;51.062;6.920;2024-02-04T01:45:21;4.30;;;2.93;;
4122;SDS011;2075;51.062;6.920;2024-02-04T01:48:08;3.63;;;3.40;;
4122;SDS011;2075;51.062;6.920;2024-02-04T01:50:54;3.20;;;3.00;;
4122;SDS011;2075;51.062;6.920;2024-02-04T01:53:46;3.20;;;2.97;;
4122;SDS011;2075;51.062;6.920;2024-02-04T01:56:32;3.90;;;3.60;;
4122;SDS011;2075;51.062;6.920;2024-02-04T01:59:18;3.80;;;3.50;;
4122;SDS011;2075;51.062;6.920;2024-02-04T02:02:05;3.53;;;3.30;;
4122;SDS011;2075;51.062;6.920;2024-02-04T02:04:51;3.73;;;3.43;;
4122;SDS011;2075;51.062;6.920;2024-02-04T02:07:37;3.63;;;3.10;;
4122;SDS011;2075;51.062;6.920;2024-02-04T02:10:23;3.83;;;3.53;;
4122;SDS011;2075;51.062;6.920;2024-02-04T02:13:11;4.07;;;3.73;;
4122;SDS011;2075;51.062;6.920;2024-02-04T02:16:02;4.47;;;3.37;;
4122;SDS011;2075;51.062;6.920;2024-02-04T02:18:52;3.87;;;3.30;;
4122;SDS011;2075;51.062;6.920;2024-02-04T02:21:44;3.97;;;3.67;;
4122;SDS011;2075;51.062;6.920;2024-02-04T02:24:37;4.10;;;3.70;;
4122;SDS011;2075;51.062;6.920;2024-02-04T02:27:23;4.33;;;3.93;;
4122;SDS011;2075;51.062;6.920;2024-02-04T02:30:09;4.03;;;3.33;;
4122;SDS011;2075;51.062;6.920;2024-02-04T02:32:55;5.70;;;3.80;;
4122;SDS011;2075;51.062;6.920;2024-02-04T02:35:42;4.50;;;3.43;;
4122;SDS011;2075;51.062;6.920;2024-02-04T02:38:32;4.13;;;3.73;;
4122;SDS011;2075;51.062;6.920;2024-02-04T02:41:23;4.43;;;4.03;;
4122;SDS011;2075;51.062;6.920;2024-02-04T02:44:13;4.60;;;4.20;;
4122;SDS011;2075;51.062;6.920;2024-02-04T02:46:59;4.03;;;3.63;;
4122;SDS011;2075;51.062;6.920;2024-02-04T02:49:48;5.00;;;4.13;;
4122;SDS011;2075;51.062;6.920;2024-02-04T02:52:36;4.40;;;3.90;;
4122;SDS011;2075;51.062;6.920;2024-02-04T02:55:22;5.00;;;4.50;;
4122;SDS011;2075;51.062;6.920;2024-02-04T02:58:08;4.67;;;4.03;;
4122;SDS011;2075;51.062;6.920;2024-02-04T03:00:54;5.80;;;4.10;;
4122;SDS011;2075;51.062;6.920;2024-02-04T03:03:39;8.03;;;4.83;;
4122;SDS011;2075;51.062;6.920;2024-02-04T03:06:25;4.83;;;4.40;;
4122;SDS011;2075;51.062;6.920;2024-02-04T03:09:10;6.23;;;4.90;;
4122;SDS011;2075;51.062;6.920;2024-02-04T03:11:58;5.27;;;4.47;;
4122;SDS011;2075;51.062;6.920;2024-02-04T03:14:44;5.30;;;4.70;;
4122;SDS011;2075;51.062;6.920;2024-02-04T03:17:30;5.27;;;4.77;;
4122;SDS011;2075;51.062;6.920;2024-02-04T03:20:15;4.23;;;3.93;;
4122;SDS011;2075;51.062;6.920;2024-02-04T03:23:01;5.90;;;4.50;;
4122;SDS011;2075;51.062;6.920;2024-02-04T03:25:46;5.60;;;4.87;;
4122;SDS011;2075;51.062;6.920;2024-02-04T03:28:32;5.40;;;4.90;;
4122;SDS011;2075;51.062;6.920;2024-02-04T03:31:22;4.60;;;4.20;;
4122;SDS011;2075;51.062;6.920;2024-02-04T03:34:09;5.10;;;4.60;;
4122;SDS011;2075;51.062;6.920;2024-02-04T03:36:54;5.10;;;4.70;;
4122;SDS011;2075;51.062;6.920;2024-02-04T03:39:40;12.33;;;4.57;;
4122;SDS011;2075;51.062;6.920;2024-02-04T03:42:25;5.53;;;4.93;;
4122;SDS011;2075;51.062;6.920;2024-02-04T03:45:11;5.70;;;5.10;;
4122;SDS011;2075;51.062;6.920;2024-02-04T03:47:57;5.60;;;5.00;;
4122;SDS011;2075;51.062;6.920;2024-02-04T03:50:42;5.50;;;5.00;;
4122;SDS011;2075;51.062;6.920;2024-02-04T03:53:28;5.23;;;4.70;;
4122;SDS011;2075;51.062;6.920;2024-02-04T03:56:13;6.97;;;5.80;;
4122;SDS011;2075;51.062;6.920;2024-02-04T03:58:59;5.57;;;5.07;;
4122;SDS011;2075;51.062;6.920;2024-02-04T04:01:46;6.13;;;5.53;;
4122;SDS011;2075;51.062;6.920;2024-02-04T04:04:34;6.07;;;5.37;;
4122;SDS011;2075;51.062;6.920;2024-02-04T04:07:20;6.77;;;5.30;;
4122;SDS011;2075;51.062;6.920;2024-02-04T04:10:05;8.27;;;6.23;;
4122;SDS011;2075;51.062;6.920;2024-02-04T04:12:51;8.63;;;5.73;;
4122;SDS011;2075;51.062;6.920;2024-02-04T04:15:36;7.97;;;6.30;;
4122;SDS011;2075;51.062;6.920;2024-02-04T04:18:21;8.20;;;6.23;;
4122;SDS011;2075;51.062;6.920;2024-02-04T04:21:08;8.17;;;6.53;;
4122;SDS011;2075;51.062;6.920;2024-02-04T04:23:53;8.03;;;5.90;;
4122;SDS011;2075;51.062;6.920;2024-02-04T04:26:39;7.97;;;6.00;;
4122;SDS011;2075;51.062;6.920;2024-02-04T04:29:24;8.33;;;6.10;;
4122;SDS011;2075;51.062;6.920;2024-02-04T04:32:10;6.47;;;5.77;;
4122;SDS011;2075;51.062;6.920;2024-02-04T04:34:55;6.80;;;5.20;;
4122;SDS011;2075;51.062;6.920;2024-02-04T04:37:42;9.13;;;4.70;;
4122;SDS011;2075;51.062;6.920;2024-02-04T04:40:27;5.73;;;5.20;;
4122;SDS011;2075;51.062;6.920;2024-02-04T04:43:13;6.13;;;5.37;;
4122;SDS011;2075;51.062;6.920;2024-02-04T04:45:58;9.57;;;5.70;;
4122;SDS011;2075;51.062;6.920;2024-02-04T04:48:46;4.97;;;4.30;;
4122;SDS011;2075;51.062;6.920;2024-02-04T04:51:31;11.33;;;5.10;;
4122;SDS011;2075;51.062;6.920;2024-02-04T04:54:18;4.87;;;4.37;;
4122;SDS011;2075;51.062;6.920;2024-02-04T04:57:04;6.13;;;5.50;;
4122;SDS011;2075;51.062;6.920;2024-02-04T04:59:49;5.10;;;4.60;;
4122;SDS011;2075;51.062;6.920;2024-02-04T05:02:35;5.63;;;4.63;;
4122;SDS011;2075;51.062;6.920;2024-02-04T05:05:20;8.17;;;5.23;;
4122;SDS011;2075;51.062;6.920;2024-02-04T05:08:06;7.90;;;5.43;;
4122;SDS011;2075;51.062;6.920;2024-02-04T05:10:52;14.83;;;6.43;;
4122;SDS011;2075;51.062;6.920;2024-02-04T05:13:38;13.73;;;6.17;;
4122;SDS011;2075;51.062;6.920;2024-02-04T05:16:23;7.63;;;5.70;;
4122;SDS011;2075;51.062;6.920;2024-02-04T05:19:09;7.37;;;5.70;;
4122;SDS011;2075;51.062;6.920;2024-02-04T05:21:54;9.60;;;6.23;;
4122;SDS011;2075;51.062;6.920;2024-02-04T05:24:40;8.93;;;6.13;;
4122;SDS011;2075;51.062;6.920;2024-02-04T05:27:27;8.10;;;5.80;;
4122;SDS011;2075;51.062;6.920;2024-02-04T05:30:13;10.70;;;6.27;;
4122;SDS011;2075;51.062;6.920;2024-02-04T05:32:59;8.03;;;6.33;;
4122;SDS011;2075;51.062;6.920;2024-02-04T05:35:44;8.93;;;6.43;;
4122;SDS011;2075;51.062;6.920;2024-02-04T05:38:30;9.50;;;6.50;;
4122;SDS011;2075;51.062;6.920;2024-02-04T05:41:15;7.43;;;5.87;;
4122;SDS011;2075;51.062;6.920;2024-02-04T05:44:04;8.27;;;6.53;;
4122;SDS011;2075;51.062;6.920;2024-02-04T05:46:49;13.30;;;6.70;;
4122;SDS011;2075;51.062;6.920;2024-02-04T05:49:35;11.90;;;6.23;;
4122;SDS011;2075;51.062;6.920;2024-02-04T05:52:20;9.33;;;6.47;;
4122;SDS011;2075;51.062;6.920;2024-02-04T05:55:06;9.90;;;6.67;;
4122;SDS011;2075;51.062;6.920;2024-02-04T05:57:51;8.17;;;5.63;;
4122;SDS011;2075;51.062;6.920;2024-02-04T06:00:38;9.30;;;6.30;;
4122;SDS011;2075;51.062;6.920;2024-02-04T06:03:24;11.10;;;6.30;;
4122;SDS011;2075;51.062;6.920;2024-02-04T06:06:09;6.53;;;5.03;;
4122;SDS011;2075;51.062;6.920;2024-02-04T06:08:59;7.87;;;6.00;;
4122;SDS011;2075;51.062;6.920;2024-02-04T06:11:45;7.33;;;5.60;;
4122;SDS011;2075;51.062;6.920;2024-02-04T06:14:31;6.17;;;5.30;;
4122;SDS011;2075;51.062;6.920;2024-02-04T06:17:19;6.17;;;5.47;;
4122;SDS011;2075;51.062;6.920;2024-02-04T06:20:05;7.00;;;5.80;;
4122;SDS011;2075;51.062;6.920;2024-02-04T06:22:51;8.17;;;6.13;;
4122;SDS011;2075;51.062;6.920;2024-02-04T06:25:36;9.27;;;5.53;;
4122;SDS011;2075;51.062;6.920;2024-02-04T06:28:22;7.77;;;5.87;;
4122;SDS011;2075;51.062;6.920;2024-02-04T06:31:08;9.30;;;5.40;;
4122;SDS011;2075;51.062;6.920;2024-02-04T06:33:55;8.77;;;6.20;;
4122;SDS011;2075;51.062;6.920;2024-02-04T06:36:42;10.17;;;5.63;;
4122;SDS011;2075;51.062;6.920;2024-02-04T06:39:28;7.00;;;5.60;;
4122;SDS011;2075;51.062;6.920;2024-02-04T06:42:14;7.60;;;5.33;;
4122;SDS011;2075;51.062;6.920;2024-02-04T06:44:59;6.93;;;4.90;;
4122;SDS011;2075;51.062;6.920;2024-02-04T06:47:44;6.20;;;5.10;;
4122;SDS011;2075;51.062;6.920;2024-02-04T06:50:31;6.67;;;5.27;;
4122;SDS011;2075;51.062;6.920;2024-02-04T06:53:16;8.60;;;5.07;;
4122;SDS011;2075;51.062;6.920;2024-02-04T06:56:02;5.70;;;5.10;;
4122;SDS011;2075;51.062;6.920;2024-02-04T06:58:47;11.43;;;5.50;;
4122;SDS011;2075;51.062;6.920;2024-02-04T07:01:33;5.80;;;4.80;;
4122;SDS011;2075;51.062;6.920;2024-02-04T07:04:18;6.20;;;4.90;;
4122;SDS011;2075;51.062;6.920;2024-02-04T07:07:07;4.57;;;4.13;;
4122;SDS011;2075;51.062;6.920;2024-02-04T07:09:52;5.30;;;4.77;;
4122;SDS011;2075;51.062;6.920;2024-02-04T07:12:38;4.63;;;4.07;;
4122;SDS011;2075;51.062;6.920;2024-02-04T07:15:23;5.20;;;4.70;;
4122;SDS011;2075;51.062;6.920;2024-02-04T07:18:08;5.93;;;4.53;;
4122;SDS011;2075;51.062;6.920;2024-02-04T07:20:54;8.57;;;5.10;;
4122;SDS011;2075;51.062;6.920;2024-02-04T07:23:41;10.70;;;4.30;;
4122;SDS011;2075;51.062;6.920;2024-02-04T07:26:27;9.00;;;3.70;;
4122;SDS011;2075;51.062;6.920;2024-02-04T07:29:12;6.20;;;4.23;;
4122;SDS011;2075;51.062;6.920;2024-02-04T07:31:58;3.60;;;3.30;;
4122;SDS011;2075;51.062;6.920;2024-02-04T07:34:43;3.47;;;3.20;;
4122;SDS011;2075;51.062;6.920;2024-02-04T07:37:29;2.87;;;2.67;;
4122;SDS011;2075;51.062;6.920;2024-02-04T07:40:16;3.43;;;3.20;;
4122;SDS011;2075;51.062;6.920;2024-02-04T07:43:01;3.73;;;2.67;;
4122;SDS011;2075;51.062;6.920;2024-02-04T07:45:47;2.77;;;2.57;;
4122;SDS011;2075;51.062;6.920;2024-02-04T07:48:32;3.07;;;2.60;;
4122;SDS011;2075;51.062;6.920;2024-02-04T07:51:18;2.30;;;2.20;;
4122;SDS011;2075;51.062;6.920;2024-02-04T07:54:04;2.20;;;2.20;;
4122;SDS011;2075;51.062;6.920;2024-02-04T07:56:51;3.07;;;2.87;;
4122;SDS011;2075;51.062;6.920;2024-02-04T07:59:36;3.17;;;2.87;;
4122;SDS011;2075;51.062;6.920;2024-02-04T08:02:22;2.73;;;2.57;;
4122;SDS011;2075;51.062;6.920;2024-02-04T08:05:07;2.50;;;2.40;;
4122;SDS011;2075;51.062;6.920;2024-02-04T08:07:53;2.43;;;2.23;;
4122;SDS011;2075;51.062;6.920;2024-02-04T08:10:38;2.83;;;2.53;;
4122;SDS011;2075;51.062;6.920;2024-02-04T08:13:27;2.67;;;2.57;;
4122;SDS011;2075;51.062;6.920;2024-02-04T08:16:13;5.30;;;3.33;;
4122;SDS011;2075;51.062;6.920;2024-02-04T08:18:58;4.07;;;3.67;;
4122;SDS011;2075;51.062;6.920;2024-02-04T08:21:44;3.47;;;3.27;;
4122;SDS011;2075;51.062;6.920;2024-02-04T08:24:29;2.50;;;2.30;;
4122;SDS011;2075;51.062;6.920;2024-02-04T08:27:16;3.27;;;2.97;;
4122;SDS011;2075;51.062;6.920;2024-02-04T08:30:03;3.97;;;3.33;;
4122;SDS011;2075;51.062;6.920;2024-02-04T08:32:49;4.00;;;3.47;;
4122;SDS011;2075;51.062;6.920;2024-02-04T08:35:35;3.30;;;3.00;;
4122;SDS011;2075;51.062;6.920;2024-02-04T08:38:20;8.13;;;4.17;;
4122;SDS011;2075;51.062;6.920;2024-02-04T08:41:06;4.43;;;4.00;;
4122;SDS011;2075;51.062;6.920;2024-02-04T08:43:51;4.13;;;3.83;;
4122;SDS011;2075;51.062;6.920;2024-02-04T08:46:38;4.60;;;3.57;;
4122;SDS011;2075;51.062;6.920;2024-02-04T08:49:23;3.97;;;3.40;;
4122;SDS011;2075;51.062;6.920;2024-02-04T08:52:09;3.37;;;3.07;;
4122;SDS011;2075;51.062;6.920;2024-02-04T08:54:54;3.63;;;3.07;;
4122;SDS011;2075;51.062;6.920;2024-02-04T08:57:40;8.07;;;4.00;;
4122;SDS011;2075;51.062;6.920;2024-02-04T09:00:25;5.30;;;3.90;;
4122;SDS011;2075;51.062;6.920;2024-02-04T09:03:12;4.33;;;3.93;;
4122;SDS011;2075;51.062;6.920;2024-02-04T09:05:58;3.50;;;3.30;;
4122;SDS011;2075;51.062;6.920;2024-02-04T09:08:43;2.87;;;2.70;;
4122;SDS011;2075;51.062;6.920;2024-02-04T09:11:29;3.90;;;3.60;;
4122;SDS011;2075;51.062;6.920;2024-02-04T09:14:15;3.87;;;2.70;;
4122;SDS011;2075;51.062;6.920;2024-02-04T09:17:01;3.77;;;2.90;;
4122;SDS011;2075;51.062;6.920;2024-02-04T09:19:49;4.00;;;3.60;;
4122;SDS011;2075;51.062;6.920;2024-02-04T09:22:34;2.10;;;2.00;;
4122;SDS011;2075;51.062;6.920;2024-02-04T09:25:19;3.17;;;2.93;;
4122;SDS011;2075;51.062;6.920;2024-02-04T09:28:05;4.40;;;3.73;;
4122;SDS011;2075;51.062;6.920;2024-02-04T09:30:50;2.20;;;2.10;;
4122;SDS011;2075;51.062;6.920;2024-02-04T09:33:36;2.83;;;2.67;;
4122;SDS011;2075;51.062;6.920;2024-02-04T09:36:25;4.40;;;2.50;;
4122;SDS011;2075;51.062;6.920;2024-02-04T09:39:11;2.47;;;2.37;;
4122;SDS011;2075;51.062;6.920;2024-02-04T09:41:56;2.87;;;2.53;;
4122;SDS011;2075;51.062;6.920;2024-02-04T09:44:43;1.97;;;1.87;;
4122;SDS011;2075;51.062;6.920;2024-02-04T09:47:28;3.93;;;1.90;;
4122;SDS011;2075;51.062;6.920;2024-02-04T09:50:15;3.80;;;1.80;;
4122;SDS011;2075;51.062;6.920;2024-02-04T09:53:02;2.33;;;1.87;;
4122;SDS011;2075;51.062;6.920;2024-02-04T09:55:53;4.10;;;2.20;;
4122;SDS011;2075;51.062;6.920;2024-02-04T09:58:41;2.77;;;2.57;;
4122;SDS011;2075;51.062;6.920;2024-02-04T10:01:26;4.53;;;3.87;;
4122;SDS011;2075;51.062;6.920;2024-02-04T10:04:12;3.90;;;2.97;;
4122;SDS011;2075;51.062;6.920;2024-02-04T10:06:58;2.40;;;2.30;;
4122;SDS011;2075;51.062;6.920;2024-02-04T10:09:45;2.90;;;2.30;;
4122;SDS011;2075;51.062;6.920;2024-02-04T10:12:31;2.90;;;2.60;;
4122;SDS011;2075;51.062;6.920;2024-02-04T10:15:16;3.53;;;3.20;;
4122;SDS011;2075;51.062;6.920;2024-02-04T10:18:02;3.23;;;2.63;;
4122;SDS011;2075;51.062;6.920;2024-02-04T10:20:49;2.70;;;2.37;;
4122;SDS011;2075;51.062;6.920;2024-02-04T10:23:34;2.50;;;2.33;;
4122;SDS011;2075;51.062;6.920;2024-02-04T10:26:21;3.00;;;2.73;;
4122;SDS011;2075;51.062;6.920;2024-02-04T10:29:07;4.43;;;3.43;;
4122;SDS011;2075;51.062;6.920;2024-02-04T10:31:53;3.20;;;2.90;;
4122;SDS011;2075;51.062;6.920;2024-02-04T10:34:40;3.10;;;2.90;;
4122;SDS011;2075;51.062;6.920;2024-02-04T10:37:25;3.23;;;3.03;;
4122;SDS011;2075;51.062;6.920;2024-02-04T10:40:11;3.50;;;3.20;;
4122;SDS011;2075;51.062;6.920;2024-02-04T10:43:04;3.80;;;3.20;;
4122;SDS011;2075;51.062;6.920;2024-02-04T10:45:50;5.20;;;3.33;;
4122;SDS011;2075;51.062;6.920;2024-02-04T10:48:38;6.27;;;3.70;;
4122;SDS011;2075;51.062;6.920;2024-02-04T10:51:30;6.73;;;5.20;;
4122;SDS011;2075;51.062;6.920;2024-02-04T10:54:16;4.63;;;3.10;;
4122;SDS011;2075;51.062;6.920;2024-02-04T10:57:09;4.20;;;3.47;;
4122;SDS011;2075;51.062;6.920;2024-02-04T11:00:00;4.30;;;3.20;;
4122;SDS011;2075;51.062;6.920;2024-02-04T11:02:49;4.10;;;3.50;;
4122;SDS011;2075;51.062;6.920;2024-02-04T11:05:38;5.63;;;4.10;;
4122;SDS011;2075;51.062;6.920;2024-02-04T11:08:27;3.83;;;3.53;;
4122;SDS011;2075;51.062;6.920;2024-02-04T11:11:14;5.60;;;3.53;;
4122;SDS011;2075;51.062;6.920;2024-02-04T11:14:00;3.50;;;3.20;;
4122;SDS011;2075;51.062;6.920;2024-02-04T11:16:56;3.53;;;3.13;;
4122;SDS011;2075;51.062;6.920;2024-02-04T11:19:57;3.50;;;3.20;;
4122;SDS011;2075;51.062;6.920;2024-02-04T11:23:05;4.10;;;3.53;;
4122;SDS011;2075;51.062;6.920;2024-02-04T11:26:04;2.73;;;2.63;;
4122;SDS011;2075;51.062;6.920;2024-02-04T11:28:51;4.03;;;3.00;;
4122;SDS011;2075;51.062;6.920;2024-02-04T11:31:38;2.77;;;2.67;;
4122;SDS011;2075;51.062;6.920;2024-02-04T11:34:26;3.00;;;2.60;;
4122;SDS011;2075;51.062;6.920;2024-02-04T11:37:17;3.17;;;2.97;;
4122;SDS011;2075;51.062;6.920;2024-02-04T11:40:04;3.17;;;2.97;;
4122;SDS011;2075;51.062;6.920;2024-02-04T11:42:50;5.07;;;2.97;;
4122;SDS011;2075;51.062;6.920;2024-02-04T11:45:39;2.70;;;2.50;;
4122;SDS011;2075;51.062;6.920;2024-02-04T11:48:28;2.67;;;2.50;;
4122;SDS011;2075;51.062;6.920;2024-02-04T11:51:16;2.67;;;2.47;;
4122;SDS011;2075;51.062;6.920;2024-02-04T11:54:02;3.27;;;2.70;;
4122;SDS011;2075;51.062;6.920;2024-02-04T11:56:48;3.20;;;2.90;;
4122;SDS011;2075;51.062;6.920;2024-02-04T11:59:36;4.17;;;2.83;;
4122;SDS011;2075;51.062;6.920;2024-02-04T12:02:22;3.90;;;3.17;;
4122;SDS011;2075;51.062;6.920;2024-02-04T12:05:08;2.70;;;2.50;;
4122;SDS011;2075;51.062;6.920;2024-02-04T12:07:55;3.10;;;2.80;;
4122;SDS011;2075;51.062;6.920;2024-02-04T12:10:42;5.80;;;3.27;;
4122;SDS011;2075;51.062;6.920;2024-02-04T12:13:27;6.10;;;2.87;;
4122;SDS011;2075;51.062;6.920;2024-02-04T12:16:13;6.87;;;3.70;;
4122;SDS011;2075;51.062;6.920;2024-02-04T12:19:00;3.47;;;3.13;;
4122;SDS011;2075;51.062;6.920;2024-02-04T12:21:47;5.03;;;3.30;;
4122;SDS011;2075;51.062;6.920;2024-02-04T12:24:34;5.17;;;3.20;;
4122;SDS011;2075;51.062;6.920;2024-02-04T12:27:20;3.40;;;3.10;;
4122;SDS011;2075;51.062;6.920;2024-02-04T12:30:09;3.03;;;2.83;;
4122;SDS011;2075;51.062;6.920;2024-02-04T12:32:57;6.10;;;2.93;;
4122;SDS011;2075;51.062;6.920;2024-02-04T12:35:43;3.13;;;2.90;;
4122;SDS011;2075;51.062;6.920;2024-02-04T12:38:34;3.53;;;2.87;;
4122;SDS011;2075;51.062;6.920;2024-02-04T12:41:21;3.33;;;2.83;;
4122;SDS011;2075;51.062;6.920;2024-02-04T12:44:08;4.43;;;3.53;;
4122;SDS011;2075;51.062;6.920;2024-02-04T12:46:53;2.87;;;2.70;;
4122;SDS011;2075;51.062;6.920;2024-02-04T12:49:39;6.77;;;4.60;;
4122;SDS011;2075;51.062;6.920;2024-02-04T12:52:24;3.80;;;3.10;;
4122;SDS011;2075;51.062;6.920;2024-02-04T12:55:18;3.00;;;2.80;;
4122;SDS011;2075;51.062;6.920;2024-02-04T12:58:06;2.27;;;2.17;;
4122;SDS011;2075;51.062;6.920;2024-02-04T13:00:59;2.50;;;2.40;;
4122;SDS011;2075;51.062;6.920;2024-02-04T13:03:46;2.77;;;2.67;;
4122;SDS011;2075;51.062;6.920;2024-02-04T13:06:37;2.83;;;2.70;;
4122;SDS011;2075;51.062;6.920;2024-02-04T13:09:23;2.63;;;2.53;;
4122;SDS011;2075;51.062;6.920;2024-02-04T13:12:09;3.20;;;3.00;;
4122;SDS011;2075;51.062;6.920;2024-02-04T13:14:57;2.90;;;2.70;;
4122;SDS011;2075;51.062;6.920;2024-02-04T13:17:43;3.30;;;3.00;;
4122;SDS011;2075;51.062;6.920;2024-02-04T13:20:29;2.90;;;2.70;;
4122;SDS011;2075;51.062;6.920;2024-02-04T13:23:14;3.43;;;3.23;;
4122;SDS011;2075;51.062;6.920;2024-02-04T13:26:00;5.60;;;3.37;;
4122;SDS011;2075;51.062;6.920;2024-02-04T13:28:46;3.73;;;3.37;;
4122;SDS011;2075;51.062;6.920;2024-02-04T13:31:33;3.77;;;3.50;;
4122;SDS011;2075;51.062;6.920;2024-02-04T13:34:19;3.13;;;3.03;;
4122;SDS011;2075;51.062;6.920;2024-02-04T13:37:04;3.93;;;3.43;;
4122;SDS011;2075;51.062;6.920;2024-02-04T13:39:51;3.13;;;2.90;;
4122;SDS011;2075;51.062;6.920;2024-02-04T13:42:36;3.60;;;3.40;;
4122;SDS011;2075;51.062;6.920;2024-02-04T13:45:22;2.80;;;2.60;;
4122;SDS011;2075;51.062;6.920;2024-02-04T13:48:09;5.20;;;3.03;;
4122;SDS011;2075;51.062;6.920;2024-02-04T13:50:55;3.33;;;3.03;;
4122;SDS011;2075;51.062;6.920;2024-02-04T13:53:40;3.00;;;2.80;;
4122;SDS011;2075;51.062;6.920;2024-02-04T13:56:26;3.27;;;2.70;;
4122;SDS011;2075;51.062;6.920;2024-02-04T13:59:13;3.23;;;3.03;;
4122;SDS011;2075;51.062;6.920;2024-02-04T14:01:58;2.40;;;2.30;;
4122;SDS011;2075;51.062;6.920;2024-02-04T14:04:46;2.27;;;2.13;;
4122;SDS011;2075;51.062;6.920;2024-02-04T14:07:32;2.27;;;2.17;;
4122;SDS011;2075;51.062;6.920;2024-02-04T14:10:17;2.93;;;2.40;;
4122;SDS011;2075;51.062;6.920;2024-02-04T14:13:04;2.10;;;2.00;;
4122;SDS011;2075;51.062;6.920;2024-02-04T14:15:50;1.73;;;1.67;;
4122;SDS011;2075;51.062;6.920;2024-02-04T14:18:36;2.20;;;2.10;;
4122;SDS011;2075;51.062;6.920;2024-02-04T14:21:25;1.93;;;1.83;;
4122;SDS011;2075;51.062;6.920;2024-02-04T14:24:11;5.10;;;2.03;;
4122;SDS011;2075;51.062;6.920;2024-02-04T14:26:57;2.10;;;2.00;;
4122;SDS011;2075;51.062;6.920;2024-02-04T14:29:42;2.13;;;1.93;;
4122;SDS011;2075;51.062;6.920;2024-02-04T14:32:28;2.20;;;2.00;;
4122;SDS011;2075;51.062;6.920;2024-02-04T14:35:13;4.30;;;1.83;;
4122;SDS011;2075;51.062;6.920;2024-02-04T14:38:01;2.43;;;2.23;;
4122;SDS011;2075;51.062;6.920;2024-02-04T14:40:46;1.87;;;1.87;;
4122;SDS011;2075;51.062;6.920;2024-02-04T14:43:32;3.30;;;2.43;;
4122;SDS011;2075;51.062;6.920;2024-02-04T14:46:18;2.53;;;2.33;;
4122;SDS011;2075;51.062;6.920;2024-02-04T14:49:03;3.27;;;3.00;;
4122;SDS011;2075;51.062;6.920;2024-02-04T14:51:49;4.63;;;2.37;;
4122;SDS011;2075;51.062;6.920;2024-02-04T14:54:36;2.60;;;2.40;;
4122;SDS011;2075;51.062;6.920;2024-02-04T14:57:22;3.63;;;3.07;;
4122;SDS011;2075;51.062;6.920;2024-02-04T15:00:08;2.80;;;2.60;;
4122;SDS011;2075;51.062;6.920;2024-02-04T15:02:55;3.53;;;2.37;;
4122;SDS011;2075;51.062;6.920;2024-02-04T15:05:40;2.30;;;1.97;;
4122;SDS011;2075;51.062;6.920;2024-02-04T15:08:27;2.27;;;2.10;;
4122;SDS011;2075;51.062;6.920;2024-02-04T15:11:15;5.67;;;2.40;;
4122;SDS011;2075;51.062;6.920;2024-02-04T15:14:01;3.73;;;2.50;;
4122;SDS011;2075;51.062;6.920;2024-02-04T15:16:47;3.50;;;2.20;;
4122;SDS011;2075;51.062;6.920;2024-02-04T15:19:33;2.27;;;2.17;;
4122;SDS011;2075;51.062;6.920;2024-02-04T15:22:20;2.50;;;2.30;;
4122;SDS011;2075;51.062;6.920;2024-02-04T15:25:07;2.37;;;2.27;;
4122;SDS011;2075;51.062;6.920;2024-02-04T15:27:56;7.50;;;2.67;;
4122;SDS011;2075;51.062;6.920;2024-02-04T15:30:42;2.57;;;2.13;;
4122;SDS011;2075;51.062;6.920;2024-02-04T15:33:28;2.70;;;2.50;;
4122;SDS011;2075;51.062;6.920;2024-02-04T15:36:13;2.40;;;2.30;;
4122;SDS011;2075;51.062;6.920;2024-02-04T15:39:00;3.53;;;3.30;;
4122;SDS011;2075;51.062;6.920;2024-02-04T15:41:47;2.50;;;2.40;;
4122;SDS011;2075;51.062;6.920;2024-02-04T15:44:34;4.47;;;3.07;;
4122;SDS011;2075;51.062;6.920;2024-02-04T15:47:20;2.93;;;2.50;;
4122;SDS011;2075;51.062;6.920;2024-02-04T15:50:09;2.27;;;2.17;;
4122;SDS011;2075;51.062;6.920;2024-02-04T15:52:56;3.57;;;2.47;;
4122;SDS011;2075;51.062;6.920;2024-02-04T15:55:42;2.40;;;2.30;;
4122;SDS011;2075;51.062;6.920;2024-02-04T15:58:29;2.13;;;2.03;;
4122;SDS011;2075;51.062;6.920;2024-02-04T16:01:21;4.00;;;2.20;;
4122;SDS011;2075;51.062;6.920;2024-02-04T16:04:11;2.80;;;2.40;;
4122;SDS011;2075;51.062;6.920;2024-02-04T16:07:00;2.43;;;2.30;;
4122;SDS011;2075;51.062;6.920;2024-02-04T16:09:46;1.90;;;1.90;;
4122;SDS011;2075;51.062;6.920;2024-02-04T16:12:32;2.40;;;2.27;;
4122;SDS011;2075;51.062;6.920;2024-02-04T16:15:18;1.90;;;1.80;;
4122;SDS011;2075;51.062;6.920;2024-02-04T16:18:10;3.33;;;2.40;;
4122;SDS011;2075;51.062;6.920;2024-02-04T16:20:57;3.00;;;2.80;;
4122;SDS011;2075;51.062;6.920;2024-02-04T16:23:42;2.43;;;2.27;;
4122;SDS011;2075;51.062;6.920;2024-02-04T16:26:28;2.20;;;2.10;;
4122;SDS011;2075;51.062;6.920;2024-02-04T16:29:15;2.87;;;2.10;;
4122;SDS011;2075;51.062;6.920;2024-02-04T16:32:01;2.20;;;2.10;;
4122;SDS011;2075;51.062;6.920;2024-02-04T16:34:48;2.87;;;2.67;;
4122;SDS011;2075;51.062;6.920;2024-02-04T16:37:33;2.57;;;2.40;;
4122;SDS011;2075;51.062;6.920;2024-02-04T16:40:19;2.67;;;2.57;;
4122;SDS011;2075;51.062;6.920;2024-02-04T16:43:04;2.60;;;2.13;;
4122;SDS011;2075;51.062;6.920;2024-02-04T16:45:50;2.10;;;2.00;;
4122;SDS011;2075;51.062;6.920;2024-02-04T16:48:36;3.33;;;1.80;;
4122;SDS011;2075;51.062;6.920;2024-02-04T16:51:23;2.97;;;1.70;;
4122;SDS011;2075;51.062;6.920;2024-02-04T16:54:12;3.30;;;2.50;;
4122;SDS011;2075;51.062;6.920;2024-02-04T16:56:59;1.77;;;1.67;;
4122;SDS011;2075;51.062;6.920;2024-02-04T16:59:50;3.80;;;1.87;;
4122;SDS011;2075;51.062;6.920;2024-02-04T17:02:36;6.10;;;1.67;;
4122;SDS011;2075;51.062;6.920;2024-02-04T17:05:22;5.10;;;2.10;;
4122;SDS011;2075;51.062;6.920;2024-02-04T17:08:10;3.60;;;1.70;;
4122;SDS011;2075;51.062;6.920;2024-02-04T17:10:57;3.30;;;2.10;;
4122;SDS011;2075;51.062;6.920;2024-02-04T17:13:43;2.30;;;2.20;;